Time;durP1;ratioP1;P1;durP2;ratioP2;P2;SDS_P1;SDS_P2;PMS_P1;PMS_P2;Temp;Humidity;BMP_temperature;BMP_pressure;BME280_temperature;BME280_humidity;BME280_pressure;Samples;Min_cycle;Max_cycle;Signal;HPM_P1;HPM_P2
2022/01/17 00:05:19;;;;;;;14.80;3.60;;;3.90;99.90;;;;;;10047735;29;20204;-90
2022/01/17 00:10:42;;;;;;;11.07;3.40;;;3.90;99.90;;;;;;10032969;29;20207;-83
2022/01/17 00:16:16;;;;;;;10.53;2.97;;;4.10;99.90;;;;;;10030459;29;20242;-89
2022/01/17 00:21:41;;;;;;;9.00;2.87;;;4.00;99.90;;;;;;10035616;29;20276;-75
2022/01/17 00:27:03;;;;;;;9.87;2.57;;;4.00;99.90;;;;;;10034979;29;20230;-83
2022/01/17 00:32:26;;;;;;;11.03;2.67;;;4.10;99.90;;;;;;10028192;29;20203;-84
2022/01/17 00:37:52;;;;;;;11.03;2.90;;;4.10;99.90;;;;;;10033678;29;20266;-77
2022/01/17 00:43:14;;;;;;;12.53;2.63;;;4.10;99.90;;;;;;10030785;29;20271;-81
2022/01/17 00:48:36;;;;;;;13.73;3.03;;;4.00;99.90;;;;;;10045839;29;20419;-88
2022/01/17 00:53:58;;;;;;;13.77;2.63;;;4.00;99.90;;;;;;10044770;29;20245;-87
2022/01/17 00:59:21;;;;;;;11.43;2.77;;;4.10;99.90;;;;;;10030471;29;20231;-77
2022/01/17 01:04:43;;;;;;;16.13;2.60;;;4.00;99.90;;;;;;10032731;29;20276;-78
2022/01/17 01:10:10;;;;;;;12.63;2.40;;;4.00;99.90;;;;;;10051394;29;20208;-78
2022/01/17 01:32:23;;;;;;;15.97;2.47;;;4.00;99.90;;;;;;9933066;30;20213;-80
2022/01/17 01:37:47;;;;;;;18.83;2.53;;;4.00;99.90;;;;;;9933119;30;20309;-75
2022/01/17 01:43:09;;;;;;;9.93;1.90;;;4.00;99.90;;;;;;9933081;30;20233;-88
2022/01/17 01:48:33;;;;;;;19.67;2.67;;;4.00;99.90;;;;;;9918094;30;20537;-89
2022/01/17 01:53:55;;;;;;;20.93;2.63;;;4.10;99.90;;;;;;9918548;30;20475;-79
2022/01/17 01:59:20;;;;;;;17.47;2.67;;;4.10;99.90;;;;;;10049108;29;20216;-75
2022/01/17 02:04:42;;;;;;;7.60;2.00;;;4.00;99.90;;;;;;10020182;29;20204;-90
2022/01/17 02:10:05;;;;;;;17.17;2.67;;;4.00;99.90;;;;;;10021840;29;20280;-76
2022/01/17 02:15:27;;;;;;;17.57;2.60;;;4.00;99.90;;;;;;10034307;29;20260;-75
2022/01/17 02:26:47;;;;;;;21.03;2.40;;;4.20;99.90;;;;;;9894388;30;20266;-82
2022/01/17 02:32:10;;;;;;;12.53;2.40;;;4.30;99.90;;;;;;9894414;30;20466;-79
2022/01/17 02:37:32;;;;;;;18.37;2.63;;;4.30;99.90;;;;;;9893242;30;20239;-79
2022/01/17 02:43:02;;;;;;;14.17;2.10;;;4.30;99.90;;;;;;9893991;30;20219;-82
2022/01/17 02:48:30;;;;;;;16.43;2.73;;;4.20;99.90;;;;;;9893954;30;20218;-94
2022/01/17 02:53:52;;;;;;;14.40;2.40;;;4.30;99.90;;;;;;9893497;30;20298;-77
2022/01/17 02:59:14;;;;;;;18.63;3.43;;;4.30;99.90;;;;;;9923486;29;20215;-89
2022/01/17 03:04:35;;;;;;;13.17;2.23;;;4.30;99.90;;;;;;10032482;29;20204;-77
2022/01/17 03:10:03;;;;;;;12.97;2.27;;;4.30;99.90;;;;;;10045707;29;20236;-92
2022/01/17 03:15:25;;;;;;;13.10;2.87;;;4.40;99.90;;;;;;10029679;29;20232;-91
2022/01/17 03:20:48;;;;;;;10.23;1.80;;;4.40;99.90;;;;;;10029352;29;20434;-81
2022/01/17 03:26:10;;;;;;;11.00;1.90;;;4.30;99.90;;;;;;10045471;29;20204;-92
2022/01/17 03:31:32;;;;;;;11.47;2.20;;;4.30;99.90;;;;;;10029127;29;20210;-78
2022/01/17 03:36:55;;;;;;;10.37;2.30;;;4.20;99.90;;;;;;10029033;29;20243;-81
2022/01/17 03:42:18;;;;;;;10.37;1.30;;;4.20;99.90;;;;;;10028888;29;20502;-81
2022/01/17 03:47:43;;;;;;;15.13;2.37;;;4.20;99.90;;;;;;10027546;29;20213;-77
2022/01/17 03:53:05;;;;;;;23.20;8.93;;;4.30;99.90;;;;;;10048939;29;20203;-80
2022/01/17 03:58:28;;;;;;;33.33;10.57;;;4.40;99.90;;;;;;10031780;29;20566;-88
2022/01/17 04:03:50;;;;;;;17.30;4.53;;;4.40;99.90;;;;;;10015254;29;20575;-84
2022/01/17 04:09:12;;;;;;;14.17;3.60;;;4.50;99.90;;;;;;10030659;29;20214;-78
2022/01/17 04:14:36;;;;;;;11.43;4.83;;;4.60;99.90;;;;;;10033924;29;20224;-94
2022/01/17 04:20:05;;;;;;;9.43;2.57;;;4.50;99.90;;;;;;10031887;29;20220;-87
2022/01/17 04:25:30;;;;;;;15.33;3.30;;;4.50;99.90;;;;;;10033219;29;20200;-91
2022/01/17 04:30:52;;;;;;;9.83;3.00;;;4.50;99.90;;;;;;10031858;29;20498;-82
2022/01/17 04:36:14;;;;;;;7.17;2.07;;;4.50;99.90;;;;;;10047085;29;20298;-77
2022/01/17 04:41:39;;;;;;;8.87;2.83;;;4.50;99.90;;;;;;10045137;29;20200;-75
2022/01/17 04:47:01;;;;;;;13.00;3.03;;;4.50;99.90;;;;;;10048262;29;20204;-81
2022/01/17 04:52:23;;;;;;;8.90;1.80;;;4.50;99.90;;;;;;10017376;29;20203;-88
2022/01/17 04:57:46;;;;;;;8.10;2.13;;;4.50;99.90;;;;;;10044797;29;20305;-82
2022/01/17 05:03:07;;;;;;;9.37;2.60;;;4.50;99.90;;;;;;10043219;29;20268;-79
2022/01/17 05:08:29;;;;;;;7.60;1.60;;;4.50;99.90;;;;;;10023923;29;20224;-77
2022/01/17 05:13:52;;;;;;;5.03;1.70;;;4.60;99.90;;;;;;9995027;29;20209;-88
2022/01/17 05:24:54;;;;;;;5.00;1.40;;;4.60;99.90;;;;;;10015926;29;20201;-85
2022/01/17 05:30:19;;;;;;;3.67;1.10;;;4.70;99.90;;;;;;9994347;29;20252;-76
2022/01/17 05:35:41;;;;;;;7.50;1.13;;;4.70;99.90;;;;;;9978099;29;20246;-77
2022/01/17 05:41:05;;;;;;;2.70;0.93;;;4.60;99.90;;;;;;9982727;29;20267;-76
2022/01/17 05:46:27;;;;;;;5.07;1.20;;;4.60;99.90;;;;;;10018890;29;20205;-77
2022/01/17 05:51:49;;;;;;;7.73;1.43;;;4.50;99.90;;;;;;9998463;29;20200;-76
2022/01/17 05:57:12;;;;;;;5.83;1.43;;;4.50;99.90;;;;;;9979798;29;20238;-89
2022/01/17 06:02:34;;;;;;;5.23;2.00;;;4.50;99.90;;;;;;9977943;29;20200;-76
2022/01/17 06:07:58;;;;;;;1.13;0.90;;;4.40;99.90;;;;;;10022114;29;20207;-79
2022/01/17 06:13:20;;;;;;;3.57;1.00;;;3.40;99.90;;;;;;10009191;29;20264;-86
2022/01/17 06:18:42;;;;;;;1.17;0.67;;;2.40;99.90;;;;;;10009688;29;20235;-80
2022/01/17 06:24:05;;;;;;;1.20;0.80;;;1.50;99.90;;;;;;10008434;29;20251;-77
2022/01/17 06:29:27;;;;;;;5.87;3.37;;;1.30;99.90;;;;;;10009164;29;20221;-81
2022/01/17 06:34:49;;;;;;;2.47;1.60;;;1.10;99.90;;;;;;10008027;29;20230;-83
2022/01/17 06:40:12;;;;;;;18.27;11.40;;;0.90;99.90;;;;;;10004614;29;20217;-78
2022/01/17 06:45:35;;;;;;;13.67;5.17;;;0.90;99.90;;;;;;10009808;29;20200;-80
2022/01/17 06:50:57;;;;;;;7.93;3.60;;;0.80;99.90;;;;;;9995257;29;20557;-86
2022/01/17 06:56:19;;;;;;;8.27;3.87;;;0.90;99.90;;;;;;9995283;29;20240;-80
2022/01/17 07:01:42;;;;;;;6.67;2.73;;;0.90;99.90;;;;;;9966463;29;20439;-78
2022/01/17 07:07:05;;;;;;;10.90;6.13;;;1.20;99.90;;;;;;10004967;29;20219;-78
2022/01/17 07:12:27;;;;;;;15.70;8.30;;;1.20;99.90;;;;;;10029148;29;20291;-80
2022/01/17 07:17:48;;;;;;;13.23;5.70;;;1.20;99.90;;;;;;10046243;29;20293;-83
2022/01/17 07:23:10;;;;;;;223.33;64.67;;;1.10;99.90;;;;;;10028595;29;20257;-76
2022/01/17 07:28:32;;;;;;;21.17;9.80;;;1.10;99.90;;;;;;10044009;29;20390;-83
2022/01/17 07:33:54;;;;;;;32.90;11.90;;;1.20;99.90;;;;;;10028242;29;20282;-79
2022/01/17 07:39:21;;;;;;;18.90;7.00;;;1.20;99.90;;;;;;10028226;29;20416;-79
2022/01/17 07:44:52;;;;;;;53.73;24.53;;;1.20;99.90;;;;;;10030714;29;20200;-88
2022/01/17 07:50:17;;;;;;;42.53;16.07;;;1.20;99.90;;;;;;10044834;29;20202;-90
2022/01/17 07:55:39;;;;;;;39.93;16.27;;;1.20;99.90;;;;;;10017035;29;20263;-78
2022/01/17 08:01:01;;;;;;;38.70;17.10;;;1.30;99.90;;;;;;10045341;29;20442;-77
2022/01/17 08:06:23;;;;;;;69.67;22.63;;;1.30;99.90;;;;;;10045455;29;20209;-81
2022/01/17 08:11:46;;;;;;;35.97;15.60;;;1.30;99.90;;;;;;10031478;29;20205;-84
2022/01/17 08:17:08;;;;;;;68.10;26.10;;;1.30;99.90;;;;;;10043756;29;20532;-80
2022/01/17 08:22:30;;;;;;;49.40;17.90;;;1.30;99.90;;;;;;9984989;29;20263;-79
2022/01/17 08:27:53;;;;;;;30.57;14.07;;;1.40;99.90;;;;;;10030827;29;20210;-85
2022/01/17 08:33:15;;;;;;;31.60;13.97;;;1.60;99.90;;;;;;10031853;29;20220;-85
2022/01/17 08:38:38;;;;;;;19.93;8.90;;;1.50;99.90;;;;;;10026341;29;20250;-84
2022/01/17 08:44:00;;;;;;;16.50;7.97;;;1.30;99.90;;;;;;10038488;29;20209;-83
2022/01/17 08:49:22;;;;;;;11.63;6.07;;;1.90;99.90;;;;;;10021738;29;20220;-80
2022/01/17 08:54:44;;;;;;;12.13;5.60;;;3.70;99.90;;;;;;10022981;29;20234;-79
2022/01/17 09:00:11;;;;;;;10.73;4.60;;;5.10;99.90;;;;;;10029502;29;20227;-78
2022/01/17 09:05:50;;;;;;;8.10;4.73;;;5.60;99.90;;;;;;10036191;29;20231;-86
2022/01/17 09:11:12;;;;;;;4.90;2.63;;;4.90;99.90;;;;;;10003273;29;20217;-84
2022/01/17 09:16:35;;;;;;;9.23;4.17;;;4.00;99.90;;;;;;10020285;29;20256;-86
2022/01/17 09:21:58;;;;;;;16.13;6.27;;;3.40;99.90;;;;;;10027845;29;20238;-79
2022/01/17 09:27:21;;;;;;;11.87;4.57;;;3.10;99.90;;;;;;10036847;29;20207;-78
2022/01/17 09:32:43;;;;;;;6.77;3.43;;;2.90;99.90;;;;;;10009934;29;20414;-83
2022/01/17 09:38:05;;;;;;;7.40;2.80;;;2.70;99.90;;;;;;9975022;29;20287;-82
2022/01/17 09:43:27;;;;;;;8.87;3.80;;;2.70;99.90;;;;;;10036004;29;20236;-79
2022/01/17 09:48:51;;;;;;;7.73;3.30;;;2.60;99.90;;;;;;10043788;29;20207;-84
2022/01/17 09:54:15;;;;;;;12.27;3.53;;;2.50;99.90;;;;;;10030557;29;20215;-85
2022/01/17 09:59:38;;;;;;;7.93;2.47;;;2.40;99.90;;;;;;10024769;29;20223;-85
2022/01/17 10:05:03;;;;;;;7.97;2.47;;;2.40;99.90;;;;;;9992065;29;20238;-84
2022/01/17 10:10:46;;;;;;;5.60;1.83;;;2.40;99.90;;;;;;10003216;29;20518;-91
2022/01/17 10:16:14;;;;;;;7.63;2.33;;;2.50;99.90;;;;;;9989070;29;20305;-84
2022/01/17 10:21:47;;;;;;;5.07;2.20;;;2.60;99.90;;;;;;10028279;29;20247;-87
2022/01/17 10:38:23;;;;;;;12.23;4.13;;;2.90;99.90;;;;;;9990769;29;20290;-82
2022/01/17 10:43:46;;;;;;;5.37;1.67;;;2.90;99.90;;;;;;10011080;29;20230;-80
2022/01/17 10:49:08;;;;;;;7.90;2.33;;;2.70;99.90;;;;;;10023282;29;20203;-84
2022/01/17 10:54:30;;;;;;;6.67;2.70;;;2.70;99.90;;;;;;10013070;29;20234;-87
2022/01/17 10:59:53;;;;;;;5.60;1.90;;;2.70;99.90;;;;;;10000597;29;20392;-80
2022/01/17 11:05:22;;;;;;;5.17;1.80;;;2.80;99.90;;;;;;9991265;29;20356;-82
2022/01/17 11:10:46;;;;;;;7.03;2.70;;;2.80;99.90;;;;;;10009840;29;20249;-82
2022/01/17 11:16:13;;;;;;;12.13;3.63;;;2.90;99.90;;;;;;10002921;29;20254;-87
2022/01/17 11:21:37;;;;;;;7.47;3.57;;;3.10;99.90;;;;;;9985430;29;20323;-79
2022/01/17 11:27:03;;;;;;;28.27;8.93;;;3.20;99.90;;;;;;9980158;29;20216;-82
2022/01/17 11:32:26;;;;;;;14.90;4.63;;;3.40;99.90;;;;;;9994410;29;20241;-81
2022/01/17 11:37:55;;;;;;;16.33;5.47;;;3.60;99.90;;;;;;10010786;29;20476;-86
2022/01/17 11:43:34;;;;;;;11.77;3.33;;;3.50;99.90;;;;;;10024502;29;20203;-88
2022/01/17 11:49:08;;;;;;;11.00;3.70;;;3.40;99.90;;;;;;10032287;29;20238;-91
2022/01/17 11:54:30;;;;;;;8.00;3.83;;;3.30;99.90;;;;;;10036789;29;20285;-90
2022/01/17 11:59:52;;;;;;;7.67;3.20;;;3.20;99.90;;;;;;10003071;29;20452;-86
2022/01/17 12:05:15;;;;;;;6.50;2.20;;;3.10;99.90;;;;;;10034763;29;20228;-84
2022/01/17 12:10:40;;;;;;;60.30;26.23;;;3.00;99.90;;;;;;10039733;29;20502;-80
2022/01/17 12:16:13;;;;;;;129.43;52.70;;;2.80;99.90;;;;;;10023401;29;20254;-80
2022/01/17 12:21:43;;;;;;;138.70;51.43;;;2.80;99.90;;;;;;10009838;29;20320;-79
2022/01/17 12:27:12;;;;;;;332.30;106.00;;;2.80;99.90;;;;;;10012668;29;20260;-80
2022/01/17 12:32:36;;;;;;;240.43;79.00;;;2.70;99.90;;;;;;10026050;29;20274;-80
2022/01/17 12:38:07;;;;;;;394.80;123.03;;;2.60;99.90;;;;;;10004164;29;20273;-78
2022/01/17 12:43:47;;;;;;;175.60;65.93;;;2.70;99.90;;;;;;10014203;29;20302;-79
2022/01/17 12:49:10;;;;;;;342.50;109.77;;;2.70;99.90;;;;;;10023840;29;20247;-78
2022/01/17 12:54:33;;;;;;;29.80;14.53;;;2.60;99.90;;;;;;10008763;29;20210;-80
2022/01/17 12:59:56;;;;;;;13.00;6.50;;;2.60;99.90;;;;;;10011618;29;20223;-82
2022/01/17 13:05:30;;;;;;;18.07;9.70;;;2.60;99.90;;;;;;9974215;29;20204;-82
2022/01/17 13:10:53;;;;;;;11.87;6.30;;;2.60;99.90;;;;;;9991112;29;20436;-84
2022/01/17 13:16:17;;;;;;;15.23;3.37;;;2.50;99.90;;;;;;9984197;29;20230;-82
2022/01/17 13:21:40;;;;;;;7.67;3.97;;;2.60;99.90;;;;;;10001040;29;20264;-81
2022/01/17 13:27:10;;;;;;;8.90;3.60;;;2.60;99.90;;;;;;10032106;29;20203;-83
2022/01/17 13:32:34;;;;;;;13.60;4.10;;;2.60;99.90;;;;;;10017734;29;20544;-85
2022/01/17 13:38:19;;;;;;;17.63;5.87;;;2.70;99.90;;;;;;10016809;29;20541;-79
2022/01/17 13:43:52;;;;;;;10.07;4.57;;;2.60;99.90;;;;;;10033032;29;20207;-80
2022/01/17 13:49:14;;;;;;;9.83;3.67;;;2.50;99.90;;;;;;10015234;29;20283;-78
2022/01/17 13:54:39;;;;;;;11.40;4.50;;;2.40;99.90;;;;;;10044379;29;20203;-87
2022/01/17 14:00:05;;;;;;;9.40;3.77;;;2.30;99.90;;;;;;10005375;29;20204;-79
2022/01/17 14:05:44;;;;;;;10.03;3.60;;;2.40;99.90;;;;;;10019799;29;20213;-89
2022/01/17 14:11:09;;;;;;;11.73;3.30;;;2.30;99.90;;;;;;10013239;29;20225;-86
2022/01/17 14:16:30;;;;;;;11.90;3.13;;;2.20;99.90;;;;;;10007111;29;20450;-82
2022/01/17 14:22:06;;;;;;;18.43;6.40;;;2.20;99.90;;;;;;9998854;29;20232;-81
2022/01/17 14:27:28;;;;;;;12.93;3.60;;;2.20;99.90;;;;;;9978493;29;20526;-85
2022/01/17 14:33:13;;;;;;;6.73;2.23;;;2.20;99.90;;;;;;9975196;29;20204;-81
2022/01/17 14:38:58;;;;;;;8.47;2.77;;;2.10;99.90;;;;;;9975108;29;20296;-78
2022/01/17 14:44:20;;;;;;;17.30;4.37;;;2.10;99.90;;;;;;9988881;29;20234;-84
2022/01/17 14:49:49;;;;;;;6.83;3.00;;;2.10;99.90;;;;;;9978526;29;20526;-81
2022/01/17 15:00:56;;;;;;;13.00;3.50;;;1.90;99.90;;;;;;10025369;29;20214;-81
2022/01/17 15:06:19;;;;;;;5.40;2.20;;;1.90;99.90;;;;;;10028834;29;20245;-82
2022/01/17 15:11:42;;;;;;;8.07;3.07;;;1.80;99.90;;;;;;10022560;29;20230;-89
2022/01/17 15:17:07;;;;;;;18.53;4.93;;;1.90;99.90;;;;;;10037787;29;20246;-78
2022/01/17 15:22:29;;;;;;;9.53;3.00;;;1.80;99.90;;;;;;10032410;29;20277;-78
2022/01/17 15:27:52;;;;;;;6.60;2.47;;;1.70;99.90;;;;;;10011359;29;20228;-86
2022/01/17 15:33:14;;;;;;;6.63;2.30;;;1.60;99.90;;;;;;10007649;29;20285;-80
2022/01/17 15:38:41;;;;;;;8.10;2.90;;;1.70;99.90;;;;;;10010471;29;20234;-78
2022/01/17 15:44:20;;;;;;;11.23;5.60;;;1.70;99.90;;;;;;10000193;29;20567;-79
2022/01/17 15:49:44;;;;;;;13.10;5.87;;;1.70;99.90;;;;;;10010984;29;20216;-80
2022/01/17 15:55:07;;;;;;;7.33;3.00;;;1.60;99.90;;;;;;10025676;29;20201;-79
2022/01/17 16:00:29;;;;;;;10.80;3.87;;;1.60;99.90;;;;;;10022640;29;20218;-78
2022/01/17 16:05:51;;;;;;;6.63;3.43;;;1.60;99.90;;;;;;10022585;29;20448;-78
2022/01/17 16:11:14;;;;;;;12.07;3.80;;;1.60;99.90;;;;;;10012107;29;20220;-79
2022/01/17 16:16:37;;;;;;;10.20;4.40;;;1.50;99.90;;;;;;10024744;29;20238;-78
2022/01/17 16:21:58;;;;;;;16.57;7.83;;;1.50;99.90;;;;;;10024604;29;20293;-78
2022/01/17 16:27:20;;;;;;;44.07;15.63;;;1.50;99.90;;;;;;10003796;29;20279;-77
2022/01/17 16:32:42;;;;;;;36.07;13.30;;;1.40;99.90;;;;;;9981240;29;20217;-76
2022/01/17 16:38:04;;;;;;;16.40;6.90;;;1.40;99.90;;;;;;10039589;29;20229;-77
2022/01/17 16:43:27;;;;;;;22.20;10.40;;;1.40;99.90;;;;;;10028581;29;20200;-77
2022/01/17 16:48:51;;;;;;;20.80;7.83;;;1.40;99.90;;;;;;10011344;29;20214;-78
2022/01/17 16:54:13;;;;;;;13.70;6.60;;;1.40;99.90;;;;;;10011304;29;20206;-78
2022/01/17 16:59:35;;;;;;;22.10;8.43;;;1.40;99.90;;;;;;10010586;29;20402;-78
2022/01/17 17:04:57;;;;;;;21.47;10.53;;;1.30;99.90;;;;;;10035458;29;20195;-78
2022/01/17 17:10:21;;;;;;;14.90;7.20;;;1.30;99.90;;;;;;10022056;29;20200;-79
2022/01/17 17:15:46;;;;;;;10.60;4.30;;;1.30;99.90;;;;;;9999565;29;20237;-74
2022/01/17 17:21:18;;;;;;;6.87;3.43;;;1.30;99.90;;;;;;10009279;29;20239;-78
2022/01/17 17:26:42;;;;;;;5.80;3.27;;;1.40;99.90;;;;;;10012784;29;20203;-78
2022/01/17 17:32:05;;;;;;;17.80;6.30;;;1.30;99.90;;;;;;10043148;29;20211;-74
2022/01/17 17:37:27;;;;;;;9.40;3.33;;;1.20;99.90;;;;;;9995991;29;20228;-76
2022/01/17 17:42:51;;;;;;;8.73;4.13;;;1.30;99.90;;;;;;9982510;29;20426;-75
2022/01/17 17:48:13;;;;;;;10.47;4.43;;;1.30;99.90;;;;;;9993632;29;20199;-78
2022/01/17 17:53:36;;;;;;;8.20;3.97;;;1.10;99.90;;;;;;9968404;29;20282;-79
2022/01/17 17:59:00;;;;;;;17.23;5.13;;;1.20;99.90;;;;;;10009035;29;20229;-78
2022/01/17 18:04:22;;;;;;;35.67;12.20;;;1.20;99.90;;;;;;10002389;29;20203;-77
2022/01/17 18:09:45;;;;;;;15.87;6.37;;;1.20;99.90;;;;;;10019378;29;20214;-80
2022/01/17 18:15:08;;;;;;;20.73;8.90;;;1.20;99.90;;;;;;9993325;29;20199;-78
2022/01/17 18:20:30;;;;;;;15.50;6.70;;;1.20;99.90;;;;;;10008202;29;20251;-75
2022/01/17 18:25:53;;;;;;;11.70;4.53;;;1.20;99.90;;;;;;10014885;29;20195;-75
2022/01/17 18:31:14;;;;;;;21.40;9.43;;;1.10;99.90;;;;;;10002253;29;20219;-77
2022/01/17 18:36:37;;;;;;;11.40;4.40;;;1.10;99.90;;;;;;10016915;29;20304;-76
2022/01/17 18:42:02;;;;;;;15.43;4.30;;;1.10;99.90;;;;;;10027090;29;20225;-77
2022/01/17 18:47:26;;;;;;;9.70;4.17;;;1.00;99.90;;;;;;10010728;29;20223;-76
2022/01/17 18:52:53;;;;;;;12.03;5.23;;;1.00;99.90;;;;;;10007916;29;20214;-76
2022/01/17 18:58:14;;;;;;;22.00;7.53;;;1.00;99.90;;;;;;10004500;29;20233;-76
2022/01/17 19:03:36;;;;;;;13.37;5.87;;;1.10;99.90;;;;;;10029502;29;20203;-79
2022/01/17 19:09:00;;;;;;;15.83;6.80;;;1.00;99.90;;;;;;10004006;29;20214;-79
2022/01/17 19:14:24;;;;;;;15.50;6.53;;;0.90;99.90;;;;;;9966617;29;20192;-78
2022/01/17 19:25:21;;;;;;;26.00;10.77;;;0.80;99.90;;;;;;9978068;29;20249;-77
2022/01/17 19:30:42;;;;;;;33.60;11.93;;;0.80;99.90;;;;;;9993510;29;20207;-76
2022/01/17 19:36:05;;;;;;;35.50;12.00;;;0.80;99.90;;;;;;10006096;29;20229;-79
2022/01/17 19:41:28;;;;;;;28.60;9.00;;;0.70;99.90;;;;;;10010118;29;20458;-76
2022/01/17 19:46:52;;;;;;;36.33;10.87;;;0.70;99.90;;;;;;9993842;29;20206;-76
2022/01/17 19:52:14;;;;;;;26.93;9.40;;;0.60;99.90;;;;;;10009492;29;20206;-78
2022/01/17 19:57:37;;;;;;;17.70;7.60;;;0.60;99.90;;;;;;9994505;29;20297;-76
2022/01/17 20:03:00;;;;;;;23.83;8.90;;;0.50;99.90;;;;;;10009996;29;20205;-76
2022/01/17 20:08:23;;;;;;;22.40;8.53;;;0.50;99.90;;;;;;9993969;29;20213;-77
2022/01/17 20:13:46;;;;;;;21.00;7.53;;;0.50;99.90;;;;;;9968756;29;20468;-76
2022/01/17 20:19:08;;;;;;;26.97;9.67;;;0.50;99.90;;;;;;9959919;29;20230;-78
2022/01/17 20:24:31;;;;;;;20.87;8.63;;;0.40;99.90;;;;;;10007685;29;20242;-77
2022/01/17 20:29:52;;;;;;;25.47;9.73;;;0.40;99.90;;;;;;9994864;29;20212;-78
2022/01/17 20:35:16;;;;;;;21.17;8.70;;;0.40;99.90;;;;;;10010387;29;20196;-77
2022/01/17 20:40:38;;;;;;;14.37;7.27;;;0.30;99.90;;;;;;10046237;29;20239;-76
2022/01/17 20:46:00;;;;;;;13.53;6.10;;;0.40;99.90;;;;;;10016451;29;20209;-76
2022/01/17 20:51:22;;;;;;;15.53;6.67;;;0.40;99.90;;;;;;10030277;29;20251;-76
2022/01/17 20:56:46;;;;;;;13.60;6.57;;;0.40;99.90;;;;;;10014756;29;20231;-78
2022/01/17 21:02:10;;;;;;;16.37;7.00;;;0.40;99.90;;;;;;10005147;29;20504;-77
2022/01/17 21:07:32;;;;;;;20.60;8.93;;;0.30;99.90;;;;;;10008859;29;20211;-76
2022/01/17 21:12:54;;;;;;;14.80;5.70;;;0.30;99.90;;;;;;9990243;29;20207;-76
2022/01/17 21:18:16;;;;;;;9.93;4.37;;;0.30;99.90;;;;;;10004273;29;20227;-79
2022/01/17 21:23:38;;;;;;;12.70;5.17;;;0.40;99.90;;;;;;9990354;29;20246;-75
2022/01/17 21:29:00;;;;;;;15.07;7.07;;;0.30;99.90;;;;;;10013522;29;20245;-75
2022/01/17 21:34:22;;;;;;;13.70;5.90;;;0.30;99.90;;;;;;10040012;29;20577;-75
2022/01/17 21:39:44;;;;;;;12.03;4.37;;;0.30;99.90;;;;;;10044025;29;20235;-75
2022/01/17 21:45:07;;;;;;;10.57;4.00;;;0.30;99.90;;;;;;10041554;29;20197;-79
2022/01/17 21:50:30;;;;;;;13.20;4.97;;;0.30;99.90;;;;;;10042984;29;20203;-78
2022/01/17 21:55:51;;;;;;;13.10;4.70;;;0.30;99.90;;;;;;10019291;29;20389;-75
2022/01/17 22:01:13;;;;;;;9.23;3.57;;;0.30;99.90;;;;;;10045254;29;20452;-77
2022/01/17 22:06:36;;;;;;;10.23;3.80;;;0.30;99.90;;;;;;10020727;29;20230;-78
2022/01/17 22:11:58;;;;;;;13.27;4.90;;;0.30;99.90;;;;;;10002295;29;20243;-77
2022/01/17 22:17:20;;;;;;;7.63;3.67;;;0.30;99.90;;;;;;10031738;29;20243;-77
2022/01/17 22:22:43;;;;;;;9.23;3.90;;;0.30;99.90;;;;;;10030748;29;20561;-76
2022/01/17 22:28:20;;;;;;;7.80;3.30;;;0.30;99.90;;;;;;10032269;29;20241;-76
2022/01/17 22:33:43;;;;;;;7.23;3.50;;;0.30;99.90;;;;;;10047053;29;20497;-77
2022/01/17 22:39:05;;;;;;;6.20;3.07;;;0.20;99.90;;;;;;10046132;29;20275;-79
2022/01/17 22:44:27;;;;;;;9.10;3.47;;;0.10;99.90;;;;;;10046311;29;20277;-78
2022/01/17 22:49:49;;;;;;;9.77;3.40;;;0.10;99.90;;;;;;10008070;29;20203;-78
2022/01/17 22:55:11;;;;;;;9.50;3.10;;;0.10;99.90;;;;;;9995236;29;20502;-80
2022/01/17 23:00:33;;;;;;;12.60;3.40;;;0.10;99.90;;;;;;10014706;29;20533;-78
2022/01/17 23:05:55;;;;;;;7.97;3.13;;;0.10;99.90;;;;;;10003808;29;20206;-76
2022/01/17 23:11:17;;;;;;;10.40;3.37;;;0.10;99.90;;;;;;10005255;29;20286;-76
2022/01/17 23:16:43;;;;;;;8.17;3.43;;;0.10;99.90;;;;;;10007586;29;20231;-79
2022/01/17 23:22:05;;;;;;;8.43;2.80;;;0.10;99.90;;;;;;10011531;29;20233;-77
2022/01/17 23:27:27;;;;;;;9.50;3.67;;;0.00;99.90;;;;;;10044971;29;20214;-76
2022/01/17 23:38:36;;;;;;;8.43;3.00;;;-0.10;99.90;;;;;;9993143;29;20239;-76
2022/01/17 23:43:58;;;;;;;10.07;3.20;;;-0.10;99.90;;;;;;10024187;29;20206;-77
2022/01/17 23:49:20;;;;;;;7.47;2.97;;;-0.10;99.90;;;;;;10030593;29;20537;-76
2022/01/17 23:54:42;;;;;;;8.67;3.30;;;-0.10;99.90;;;;;;10006576;29;20207;-76
